Time;durP1;ratioP1;P1;durP2;ratioP2;P2;SDS_P1;SDS_P2;PMS_P1;PMS_P2;Temp;Humidity;BMP_temperature;BMP_pressure;BME280_temperature;BME280_humidity;BME280_pressure;Samples;Min_cycle;Max_cycle;Signal;HPM_P1;HPM_P2
2023/08/21 00:00:01;;;;;;;;;;;22.70;74.50;;;;;;5051415;28;903;-69
2023/08/21 00:02:27;;;;;;;;;;;22.70;74.50;;;;;;5052262;28;951;-69
2023/08/21 00:04:53;;;;;;;;;;;22.70;74.50;;;;;;5052536;28;837;-69
2023/08/21 00:07:19;;;;;;;;;;;22.70;74.50;;;;;;5050853;28;1914;-69
2023/08/21 00:09:44;;;;;;;;;;;22.70;74.50;;;;;;5045762;28;1252;-69
2023/08/21 00:12:10;;;;;;;;;;;22.70;74.50;;;;;;5051709;28;935;-68
2023/08/21 00:14:35;;;;;;;;;;;22.70;74.50;;;;;;5051282;28;843;-69
2023/08/21 00:17:02;;;;;;;;;;;22.70;74.50;;;;;;5051164;28;819;-68
2023/08/21 00:19:28;;;;;;;;;;;22.70;74.50;;;;;;5043745;28;1405;-68
2023/08/21 00:21:53;;;;;;;;;;;22.70;74.50;;;;;;5051274;28;918;-69
2023/08/21 00:24:19;;;;;;;;;;;22.70;74.50;;;;;;5051150;28;978;-68
2023/08/21 00:26:44;;;;;;;;;;;22.70;74.50;;;;;;5050734;28;1913;-69
2023/08/21 00:29:10;;;;;;;;;;;22.70;74.50;;;;;;5050136;28;1244;-69
2023/08/21 00:31:35;;;;;;;;;;;22.70;74.50;;;;;;5050221;28;1006;-69
2023/08/21 00:34:01;;;;;;;;;;;22.70;74.50;;;;;;5050940;28;813;-69
2023/08/21 00:36:26;;;;;;;;;;;22.70;74.50;;;;;;5050855;28;1282;-69
2023/08/21 00:38:52;;;;;;;;;;;22.70;74.50;;;;;;5050067;28;1317;-69
2023/08/21 00:41:17;;;;;;;;;;;22.70;74.50;;;;;;5050901;28;877;-69
2023/08/21 00:43:43;;;;;;;;;;;22.60;74.40;;;;;;5051028;28;1014;-68
2023/08/21 00:46:08;;;;;;;;;;;22.70;74.50;;;;;;5050869;28;1905;-68
2023/08/21 00:48:34;;;;;;;;;;;22.70;74.40;;;;;;5040257;28;1269;-69
2023/08/21 00:50:59;;;;;;;;;;;22.70;74.50;;;;;;5044413;28;899;-69
2023/08/21 00:53:25;;;;;;;;;;;22.70;74.50;;;;;;5050789;28;861;-69
2023/08/21 00:55:50;;;;;;;;;;;22.70;74.50;;;;;;5050850;28;931;-69
2023/08/21 00:58:16;;;;;;;;;;;22.70;74.50;;;;;;5049506;28;1371;-68
2023/08/21 01:00:41;;;;;;;;;;;22.70;74.50;;;;;;5042407;28;912;-69
2023/08/21 01:03:06;;;;;;;;;;;22.70;74.50;;;;;;5050225;28;934;-68
2023/08/21 01:05:32;;;;;;;;;;;22.70;74.50;;;;;;5050396;28;1367;-69
2023/08/21 01:08:02;;;;;;;;;;;22.70;74.50;;;;;;5042387;28;1914;-68
2023/08/21 01:10:34;;;;;;;;;;;22.70;74.50;;;;;;5043408;28;848;-69
2023/08/21 01:13:20;;;;;;;;;;;22.70;74.50;;;;;;5043433;28;948;-68
2023/08/21 01:15:46;;;;;;;;;;;22.70;74.50;;;;;;5047788;28;1523;-68
2023/08/21 01:18:11;;;;;;;;;;;22.70;74.50;;;;;;5044739;28;1460;-69
2023/08/21 01:20:37;;;;;;;;;;;22.60;74.50;;;;;;5045834;28;1416;-69
2023/08/21 01:23:08;;;;;;;;;;;22.70;74.50;;;;;;5048692;28;1317;-69
2023/08/21 01:25:33;;;;;;;;;;;22.70;74.50;;;;;;5050425;28;915;-69
2023/08/21 01:27:59;;;;;;;;;;;22.70;74.50;;;;;;5048942;28;1906;-69
2023/08/21 01:30:25;;;;;;;;;;;22.70;75.30;;;;;;5050145;28;1212;-69
2023/08/21 01:32:50;;;;;;;;;;;22.70;74.50;;;;;;5043133;28;883;-69
2023/08/21 01:35:16;;;;;;;;;;;22.70;74.50;;;;;;5050222;28;852;-69
2023/08/21 01:37:41;;;;;;;;;;;22.70;74.60;;;;;;5050172;28;1243;-69
2023/08/21 01:40:07;;;;;;;;;;;22.70;74.70;;;;;;5045310;28;887;-69
2023/08/21 01:42:32;;;;;;;;;;;22.70;74.60;;;;;;5049936;28;859;-69
2023/08/21 01:44:58;;;;;;;;;;;22.70;74.50;;;;;;5049741;28;955;-68
2023/08/21 01:47:23;;;;;;;;;;;22.70;74.60;;;;;;5044476;28;1898;-69
2023/08/21 01:49:52;;;;;;;;;;;22.70;74.60;;;;;;5049878;28;802;-69
2023/08/21 01:52:18;;;;;;;;;;;22.70;74.60;;;;;;5050712;28;828;-69
2023/08/21 01:54:43;;;;;;;;;;;22.60;74.50;;;;;;5049934;28;1270;-69
2023/08/21 01:57:09;;;;;;;;;;;22.70;74.60;;;;;;5041609;28;946;-68
2023/08/21 01:59:34;;;;;;;;;;;22.70;74.60;;;;;;5049054;28;1212;-69
2023/08/21 02:01:59;;;;;;;;;;;22.60;74.50;;;;;;5049923;28;1034;-69
2023/08/21 02:04:25;;;;;;;;;;;22.70;74.60;;;;;;5049659;28;792;-69
2023/08/21 02:06:50;;;;;;;;;;;22.60;74.60;;;;;;5050026;28;1886;-69
2023/08/21 02:09:16;;;;;;;;;;;22.70;74.60;;;;;;5048658;28;1283;-69
2023/08/21 02:11:41;;;;;;;;;;;22.70;74.70;;;;;;5049568;28;903;-69
2023/08/21 02:14:07;;;;;;;;;;;22.70;74.70;;;;;;5049606;28;883;-70
2023/08/21 02:16:32;;;;;;;;;;;22.60;74.50;;;;;;5049622;28;848;-70
2023/08/21 02:18:58;;;;;;;;;;;22.70;74.70;;;;;;5048905;28;1347;-70
2023/08/21 02:21:24;;;;;;;;;;;22.70;74.70;;;;;;5049944;28;812;-69
2023/08/21 02:23:50;;;;;;;;;;;22.60;74.60;;;;;;5044017;28;967;-70
2023/08/21 02:26:16;;;;;;;;;;;22.70;74.70;;;;;;5049619;28;1898;-70
2023/08/21 02:28:43;;;;;;;;;;;22.70;74.70;;;;;;5048524;28;1314;-69
2023/08/21 02:31:09;;;;;;;;;;;22.70;74.70;;;;;;5053290;28;808;-68
2023/08/21 02:33:34;;;;;;;;;;;22.60;74.60;;;;;;5053312;28;823;-68
2023/08/21 02:36:00;;;;;;;;;;;22.70;74.70;;;;;;5053526;28;1618;-68
2023/08/21 02:38:26;;;;;;;;;;;22.70;74.70;;;;;;5052125;28;1320;-68
2023/08/21 02:40:51;;;;;;;;;;;22.70;74.70;;;;;;5053505;28;1191;-70
2023/08/21 02:43:17;;;;;;;;;;;22.60;74.60;;;;;;5053059;28;884;-69
2023/08/21 02:45:42;;;;;;;;;;;22.60;74.70;;;;;;5053420;28;1450;-70
2023/08/21 02:48:08;;;;;;;;;;;22.70;74.70;;;;;;5052500;28;1958;-70
2023/08/21 02:50:33;;;;;;;;;;;22.60;74.60;;;;;;5053238;28;847;-70
2023/08/21 02:52:59;;;;;;;;;;;22.60;74.70;;;;;;5052953;28;1325;-69
2023/08/21 02:55:24;;;;;;;;;;;22.60;74.60;;;;;;5051667;28;1255;-69
2023/08/21 02:57:50;;;;;;;;;;;22.60;74.70;;;;;;5054870;28;1569;-69
2023/08/21 03:00:15;;;;;;;;;;;22.70;74.70;;;;;;5052670;28;858;-69
2023/08/21 03:02:43;;;;;;;;;;;22.60;74.60;;;;;;5053096;28;807;-70
2023/08/21 03:05:09;;;;;;;;;;;22.60;74.70;;;;;;5051235;28;900;-71
2023/08/21 03:07:34;;;;;;;;;;;22.60;74.70;;;;;;5052918;28;1906;-71
2023/08/21 03:10:01;;;;;;;;;;;22.60;74.70;;;;;;5052114;28;883;-71
2023/08/21 03:12:27;;;;;;;;;;;22.60;74.70;;;;;;5052817;28;867;-68
2023/08/21 03:14:52;;;;;;;;;;;22.60;74.70;;;;;;5048800;28;959;-68
2023/08/21 03:17:18;;;;;;;;;;;22.60;74.70;;;;;;5052588;28;845;-68
2023/08/21 03:19:43;;;;;;;;;;;22.60;74.70;;;;;;5051630;28;1393;-68
2023/08/21 03:22:09;;;;;;;;;;;22.60;74.70;;;;;;5051719;28;943;-68
2023/08/21 03:24:34;;;;;;;;;;;22.60;74.70;;;;;;5051685;28;1073;-68
2023/08/21 03:27:00;;;;;;;;;;;22.60;74.70;;;;;;5052087;28;1953;-68
2023/08/21 03:29:26;;;;;;;;;;;22.60;74.70;;;;;;5051512;28;1240;-68
2023/08/21 03:31:52;;;;;;;;;;;22.60;74.80;;;;;;5052348;28;901;-68
2023/08/21 03:34:18;;;;;;;;;;;22.60;74.70;;;;;;5042738;28;1289;-68
2023/08/21 03:36:43;;;;;;;;;;;22.60;74.70;;;;;;5050556;28;1211;-68
2023/08/21 03:39:08;;;;;;;;;;;22.60;74.80;;;;;;5051396;28;1232;-68
2023/08/21 03:41:34;;;;;;;;;;;22.60;74.80;;;;;;5051834;28;934;-68
2023/08/21 03:43:59;;;;;;;;;;;22.60;74.70;;;;;;5045589;28;1054;-68
2023/08/21 03:46:25;;;;;;;;;;;22.60;74.70;;;;;;5051922;28;1947;-68
2023/08/21 03:48:51;;;;;;;;;;;22.60;74.70;;;;;;5051210;28;1255;-68
2023/08/21 03:51:16;;;;;;;;;;;22.60;75.50;;;;;;5052844;28;848;-69
2023/08/21 03:53:42;;;;;;;;;;;22.60;74.80;;;;;;5052693;28;1300;-69
2023/08/21 03:56:07;;;;;;;;;;;22.60;74.80;;;;;;5052434;28;824;-70
2023/08/21 03:58:33;;;;;;;;;;;22.60;74.80;;;;;;5051965;28;1334;-69
2023/08/21 04:01:02;;;;;;;;;;;22.60;74.80;;;;;;5046738;28;1169;-69
2023/08/21 04:03:27;;;;;;;;;;;22.60;74.80;;;;;;5035008;28;1202;-70
2023/08/21 04:05:53;;;;;;;;;;;22.60;74.80;;;;;;5053166;28;951;-71
2023/08/21 04:08:18;;;;;;;;;;;22.60;74.80;;;;;;5043768;28;1979;-69
2023/08/21 04:10:44;;;;;;;;;;;22.60;74.90;;;;;;5045655;28;865;-69
2023/08/21 04:13:09;;;;;;;;;;;22.60;74.80;;;;;;5051400;28;897;-69
2023/08/21 04:15:35;;;;;;;;;;;22.60;74.80;;;;;;5051614;28;1037;-69
2023/08/21 04:18:00;;;;;;;;;;;22.60;74.80;;;;;;5050827;28;1277;-69
2023/08/21 04:20:26;;;;;;;;;;;22.60;74.80;;;;;;5051234;28;1454;-69
2023/08/21 04:22:51;;;;;;;;;;;22.60;74.80;;;;;;5048263;28;939;-69
2023/08/21 04:25:17;;;;;;;;;;;22.60;74.80;;;;;;5050146;28;848;-69
2023/08/21 04:27:42;;;;;;;;;;;22.60;74.80;;;;;;5051170;28;1967;-69
2023/08/21 04:30:08;;;;;;;;;;;22.60;74.80;;;;;;5050314;28;871;-69
2023/08/21 04:32:34;;;;;;;;;;;22.60;74.90;;;;;;5044247;28;926;-69
2023/08/21 04:34:59;;;;;;;;;;;22.60;74.80;;;;;;5050749;28;812;-69
2023/08/21 04:37:25;;;;;;;;;;;22.60;74.80;;;;;;5042826;28;1240;-69
2023/08/21 04:39:51;;;;;;;;;;;22.60;74.80;;;;;;5044236;28;878;-69
2023/08/21 04:42:16;;;;;;;;;;;22.60;74.80;;;;;;5050904;28;870;-69
2023/08/21 04:44:42;;;;;;;;;;;22.60;74.80;;;;;;5050291;28;823;-69
2023/08/21 04:47:20;;;;;;;;;;;22.60;74.90;;;;;;5050738;28;1898;-69
2023/08/21 04:49:46;;;;;;;;;;;22.60;74.90;;;;;;5043207;28;1395;-69
2023/08/21 04:52:11;;;;;;;;;;;22.60;74.90;;;;;;5050078;28;1022;-69
2023/08/21 04:54:37;;;;;;;;;;;22.60;74.90;;;;;;5050407;28;928;-69
2023/08/21 04:57:03;;;;;;;;;;;22.60;74.90;;;;;;5050806;28;792;-69
2023/08/21 04:59:28;;;;;;;;;;;22.60;74.90;;;;;;5049712;28;1279;-69
2023/08/21 05:01:54;;;;;;;;;;;22.60;74.90;;;;;;5049998;28;879;-68
2023/08/21 05:04:19;;;;;;;;;;;22.60;74.90;;;;;;5050490;28;1022;-69
2023/08/21 05:06:44;;;;;;;;;;;22.60;74.90;;;;;;5050271;28;1969;-69
2023/08/21 05:09:10;;;;;;;;;;;22.60;74.90;;;;;;5049490;28;1330;-69
2023/08/21 05:11:35;;;;;;;;;;;22.60;74.90;;;;;;5050372;28;925;-69
2023/08/21 05:14:01;;;;;;;;;;;22.60;74.90;;;;;;5050510;28;822;-69
2023/08/21 05:16:27;;;;;;;;;;;22.60;74.90;;;;;;5050349;28;851;-69
2023/08/21 05:18:52;;;;;;;;;;;22.60;74.90;;;;;;5050069;28;1382;-69
2023/08/21 05:21:17;;;;;;;;;;;22.60;74.90;;;;;;5051202;28;990;-69
2023/08/21 05:23:43;;;;;;;;;;;22.60;74.90;;;;;;5051410;28;814;-69
2023/08/21 05:26:08;;;;;;;;;;;22.60;74.90;;;;;;5050046;28;828;-68
2023/08/21 05:28:34;;;;;;;;;;;22.60;74.90;;;;;;5049314;28;1976;-69
2023/08/21 05:30:59;;;;;;;;;;;22.60;74.90;;;;;;5050256;28;907;-69
2023/08/21 05:33:25;;;;;;;;;;;22.60;74.90;;;;;;5050013;28;793;-69
2023/08/21 05:35:50;;;;;;;;;;;22.60;74.90;;;;;;5048865;28;824;-69
2023/08/21 05:38:16;;;;;;;;;;;22.60;74.90;;;;;;5048836;28;1309;-69
2023/08/21 05:40:44;;;;;;;;;;;22.60;74.90;;;;;;5049133;28;951;-69
2023/08/21 05:43:10;;;;;;;;;;;22.60;74.90;;;;;;5049871;28;935;-69
2023/08/21 05:45:35;;;;;;;;;;;22.60;74.90;;;;;;5049715;28;817;-69
2023/08/21 05:48:00;;;;;;;;;;;22.60;74.90;;;;;;5048672;28;1910;-68
2023/08/21 05:50:26;;;;;;;;;;;22.60;74.90;;;;;;5049771;28;975;-69
2023/08/21 05:52:54;;;;;;;;;;;22.60;74.90;;;;;;5049672;28;867;-69
2023/08/21 05:55:19;;;;;;;;;;;22.50;74.90;;;;;;5048377;28;1290;-69
2023/08/21 05:57:45;;;;;;;;;;;22.60;74.90;;;;;;5049393;28;1347;-69
2023/08/21 06:00:11;;;;;;;;;;;22.60;74.90;;;;;;5049632;28;848;-69
2023/08/21 06:02:37;;;;;;;;;;;22.60;74.90;;;;;;5045747;28;1095;-73
2023/08/21 06:05:03;;;;;;;;;;;22.60;74.90;;;;;;5051471;28;847;-72
2023/08/21 06:07:28;;;;;;;;;;;22.60;75.00;;;;;;5045533;28;1960;-71
2023/08/21 06:09:54;;;;;;;;;;;22.60;75.10;;;;;;5052986;28;875;-72
2023/08/21 06:12:19;;;;;;;;;;;22.60;75.60;;;;;;5053560;28;1001;-72
2023/08/21 06:14:44;;;;;;;;;;;22.60;75.60;;;;;;5053814;28;863;-71
2023/08/21 06:17:10;;;;;;;;;;;22.60;75.80;;;;;;5053527;28;796;-71
2023/08/21 06:19:36;;;;;;;;;;;22.60;75.80;;;;;;5041785;28;1909;-69
2023/08/21 06:22:01;;;;;;;;;;;22.70;76.00;;;;;;5052270;28;1292;-70
2023/08/21 06:24:27;;;;;;;;;;;22.70;75.80;;;;;;5052706;28;884;-70
2023/08/21 06:26:53;;;;;;;;;;;22.70;76.10;;;;;;5052931;28;2102;-71
2023/08/21 06:29:20;;;;;;;;;;;22.70;75.90;;;;;;5051768;28;1262;-70
2023/08/21 06:31:46;;;;;;;;;;;22.70;76.10;;;;;;5052629;28;904;-69
2023/08/21 06:34:11;;;;;;;;;;;22.70;76.60;;;;;;5052562;28;817;-68
2023/08/21 06:36:37;;;;;;;;;;;22.70;76.60;;;;;;5045503;28;918;-69
2023/08/21 06:39:03;;;;;;;;;;;22.70;76.50;;;;;;5051907;28;1334;-69
2023/08/21 06:41:29;;;;;;;;;;;22.70;76.60;;;;;;5052612;28;911;-69
2023/08/21 06:43:54;;;;;;;;;;;22.70;76.80;;;;;;5052275;28;891;-69
2023/08/21 06:46:20;;;;;;;;;;;22.70;76.80;;;;;;5052375;28;1937;-69
2023/08/21 06:48:45;;;;;;;;;;;22.80;76.90;;;;;;5046080;28;1334;-71
2023/08/21 06:51:11;;;;;;;;;;;22.80;76.70;;;;;;5065809;28;1260;-69
2023/08/21 06:53:36;;;;;;;;;;;22.80;77.30;;;;;;5051222;28;1523;-69
2023/08/21 06:56:02;;;;;;;;;;;22.80;77.20;;;;;;5052101;28;1069;-69
2023/08/21 06:58:27;;;;;;;;;;;22.80;77.40;;;;;;5050277;28;1260;-68
2023/08/21 07:00:53;;;;;;;;;;;22.80;76.60;;;;;;5042573;28;1014;-71
2023/08/21 07:03:19;;;;;;;;;;;22.80;76.10;;;;;;5051714;28;949;-69
2023/08/21 07:05:53;;;;;;;;;;;22.80;76.10;;;;;;5050804;28;1014;-70
2023/08/21 07:08:18;;;;;;;;;;;22.80;76.20;;;;;;5044322;28;1906;-71
2023/08/21 07:10:44;;;;;;;;;;;22.80;75.90;;;;;;5052423;28;832;-70
2023/08/21 07:13:09;;;;;;;;;;;22.80;75.80;;;;;;5051352;28;1358;-71
2023/08/21 07:15:35;;;;;;;;;;;22.80;75.80;;;;;;5051115;28;869;-71
2023/08/21 07:18:00;;;;;;;;;;;22.80;75.80;;;;;;5050780;28;1248;-71
2023/08/21 07:20:26;;;;;;;;;;;22.80;75.70;;;;;;5050444;28;1292;-71
2023/08/21 07:22:51;;;;;;;;;;;22.80;75.60;;;;;;5050712;28;868;-69
2023/08/21 07:25:17;;;;;;;;;;;22.80;75.80;;;;;;5051207;28;955;-70
2023/08/21 07:27:42;;;;;;;;;;;22.80;75.80;;;;;;5051159;28;1910;-71
2023/08/21 07:30:08;;;;;;;;;;;22.80;75.90;;;;;;5050724;28;851;-71
2023/08/21 07:32:34;;;;;;;;;;;22.80;75.90;;;;;;5049682;28;943;-71
2023/08/21 07:34:59;;;;;;;;;;;22.80;75.80;;;;;;5050817;28;835;-70
2023/08/21 07:37:24;;;;;;;;;;;22.80;75.80;;;;;;5050904;28;931;-70
2023/08/21 07:39:51;;;;;;;;;;;22.80;75.80;;;;;;5053063;28;1919;-70
2023/08/21 07:42:16;;;;;;;;;;;22.80;75.80;;;;;;5050721;28;1207;-71
2023/08/21 07:44:42;;;;;;;;;;;22.80;75.80;;;;;;5049002;28;1466;-70
2023/08/21 07:47:08;;;;;;;;;;;22.80;75.70;;;;;;5044988;28;1898;-71
2023/08/21 07:49:33;;;;;;;;;;;22.80;75.70;;;;;;5049797;28;1338;-70
2023/08/21 07:51:59;;;;;;;;;;;22.80;75.50;;;;;;5051052;28;927;-71
2023/08/21 07:54:24;;;;;;;;;;;22.80;75.50;;;;;;5048580;28;1344;-70
2023/08/21 07:56:50;;;;;;;;;;;22.80;76.20;;;;;;5052888;28;2110;-70
2023/08/21 07:59:15;;;;;;;;;;;22.80;75.60;;;;;;5012917;28;1086825;-70
2023/08/21 08:01:41;;;;;;;;;;;22.80;75.50;;;;;;5051711;28;1380;-70
2023/08/21 08:04:06;;;;;;;;;;;22.80;76.20;;;;;;5051582;28;1081;-70
2023/08/21 08:06:32;;;;;;;;;;;22.80;75.50;;;;;;5050891;28;1910;-71
2023/08/21 08:08:57;;;;;;;;;;;22.80;75.40;;;;;;5050774;28;1271;-71
2023/08/21 08:11:23;;;;;;;;;;;22.80;75.40;;;;;;5051602;28;1616;-71
2023/08/21 08:13:48;;;;;;;;;;;22.80;75.40;;;;;;5046927;28;898;-71
2023/08/21 08:16:14;;;;;;;;;;;22.80;75.40;;;;;;5051445;28;800;-70
2023/08/21 08:18:39;;;;;;;;;;;22.80;75.40;;;;;;5050661;28;1259;-70
2023/08/21 08:21:05;;;;;;;;;;;22.80;75.40;;;;;;5050136;28;2465;-70
2023/08/21 08:23:30;;;;;;;;;;;22.80;75.20;;;;;;5050425;28;2081;-69
2023/08/21 08:25:56;;;;;;;;;;;22.80;75.10;;;;;;5050778;28;1427;-70
2023/08/21 08:28:22;;;;;;;;;;;22.80;74.90;;;;;;5048783;28;1967;-69
2023/08/21 08:30:47;;;;;;;;;;;22.70;74.70;;;;;;5049767;28;1932;-69
2023/08/21 08:33:13;;;;;;;;;;;22.80;74.60;;;;;;5051062;28;1262;-69
2023/08/21 08:35:40;;;;;;;;;;;22.70;74.40;;;;;;5051059;28;906;-70
2023/08/21 08:38:05;;;;;;;;;;;22.70;74.30;;;;;;5049302;28;1279;-71
2023/08/21 08:40:31;;;;;;;;;;;22.70;74.30;;;;;;5050783;28;864;-69
2023/08/21 08:42:56;;;;;;;;;;;22.70;74.00;;;;;;5051224;28;1029;-69
2023/08/21 08:45:27;;;;;;;;;;;22.70;73.90;;;;;;5046727;28;859;-69
2023/08/21 08:47:53;;;;;;;;;;;22.70;73.80;;;;;;5049790;28;1967;-70
2023/08/21 08:50:18;;;;;;;;;;;22.70;73.80;;;;;;5050713;28;1425;-70
2023/08/21 08:52:44;;;;;;;;;;;22.70;73.50;;;;;;5045919;28;897;-68
2023/08/21 08:55:09;;;;;;;;;;;22.70;73.50;;;;;;5047696;28;1262;-69
2023/08/21 08:57:35;;;;;;;;;;;22.70;73.50;;;;;;5050914;28;1188;-70
2023/08/21 09:00:01;;;;;;;;;;;22.70;73.20;;;;;;5050047;28;845;-70
2023/08/21 09:02:26;;;;;;;;;;;22.70;73.10;;;;;;5050308;28;883;-70
2023/08/21 09:04:52;;;;;;;;;;;22.70;73.00;;;;;;5050525;28;849;-70
2023/08/21 09:07:19;;;;;;;;;;;22.70;73.80;;;;;;5044625;28;1973;-69
2023/08/21 09:09:45;;;;;;;;;;;22.70;72.90;;;;;;5050009;28;1370;-69
2023/08/21 09:12:12;;;;;;;;;;;22.70;72.70;;;;;;5042856;28;891;-69
2023/08/21 09:14:38;;;;;;;;;;;22.70;72.70;;;;;;5049465;28;957;-69
2023/08/21 09:17:04;;;;;;;;;;;22.70;72.60;;;;;;5044953;28;846;-69
2023/08/21 09:19:29;;;;;;;;;;;22.70;72.50;;;;;;5049247;28;1401;-69
2023/08/21 09:21:55;;;;;;;;;;;22.80;72.60;;;;;;5050203;28;1089;-69
2023/08/21 09:24:20;;;;;;;;;;;22.70;72.50;;;;;;5050258;28;804;-70
2023/08/21 09:26:46;;;;;;;;;;;22.80;72.40;;;;;;5044272;28;1905;-70
2023/08/21 09:29:11;;;;;;;;;;;22.70;72.30;;;;;;5049039;28;1220;-70
2023/08/21 09:31:36;;;;;;;;;;;22.70;72.00;;;;;;5045146;28;1061;-70
2023/08/21 09:34:05;;;;;;;;;;;22.70;71.70;;;;;;5050074;28;859;-70
2023/08/21 09:36:31;;;;;;;;;;;22.70;71.70;;;;;;5038654;28;1095;-71
2023/08/21 09:38:56;;;;;;;;;;;22.80;71.40;;;;;;5039776;28;1546;-71
2023/08/21 09:41:22;;;;;;;;;;;22.80;71.40;;;;;;5049983;28;883;-71
2023/08/21 09:43:48;;;;;;;;;;;22.80;71.50;;;;;;5032588;28;921;-71
2023/08/21 09:46:16;;;;;;;;;;;22.80;72.00;;;;;;5049242;28;1305;-69
2023/08/21 09:48:43;;;;;;;;;;;22.80;71.40;;;;;;5048881;28;1965;-70
2023/08/21 09:51:09;;;;;;;;;;;22.70;71.50;;;;;;5044780;28;1612;-69
2023/08/21 09:53:35;;;;;;;;;;;22.70;71.00;;;;;;5049572;28;868;-70
2023/08/21 09:56:03;;;;;;;;;;;22.80;70.00;;;;;;5045685;28;907;-71
2023/08/21 09:58:28;;;;;;;;;;;22.80;70.00;;;;;;5043382;28;1377;-68
2023/08/21 10:00:56;;;;;;;;;;;22.80;69.60;;;;;;5045241;28;867;-70
2023/08/21 10:03:21;;;;;;;;;;;22.80;69.40;;;;;;5042797;28;942;-70
2023/08/21 10:05:47;;;;;;;;;;;22.80;69.70;;;;;;5045290;28;1006;-70
2023/08/21 10:08:12;;;;;;;;;;;22.80;69.60;;;;;;5041524;28;1914;-70
2023/08/21 10:10:38;;;;;;;;;;;22.80;68.90;;;;;;5039365;28;855;-70
2023/08/21 10:13:04;;;;;;;;;;;22.80;68.40;;;;;;5050033;28;911;-69
2023/08/21 10:15:29;;;;;;;;;;;22.80;69.10;;;;;;5049342;28;860;-69
2023/08/21 10:17:55;;;;;;;;;;;22.80;70.10;;;;;;5045960;28;1292;-69
2023/08/21 10:20:24;;;;;;;;;;;22.80;70.90;;;;;;5049301;28;1304;-69
2023/08/21 10:22:54;;;;;;;;;;;22.80;71.20;;;;;;5043695;28;847;-69
2023/08/21 10:25:23;;;;;;;;;;;22.80;71.20;;;;;;5049513;28;819;-69
2023/08/21 10:27:52;;;;;;;;;;;22.80;71.20;;;;;;5042123;28;1910;-69
2023/08/21 10:30:24;;;;;;;;;;;22.80;71.60;;;;;;5048635;28;863;-70
2023/08/21 10:32:51;;;;;;;;;;;22.70;71.80;;;;;;5042619;28;868;-69
2023/08/21 10:35:23;;;;;;;;;;;22.70;72.00;;;;;;5049495;28;1275;-69
2023/08/21 10:38:07;;;;;;;;;;;22.70;72.00;;;;;;5041313;28;1355;-69
2023/08/21 10:40:33;;;;;;;;;;;22.70;72.20;;;;;;5048959;28;1702;-69
2023/08/21 10:42:59;;;;;;;;;;;22.70;72.30;;;;;;5049220;28;867;-69
2023/08/21 10:45:24;;;;;;;;;;;22.70;72.40;;;;;;5048830;28;900;-70
2023/08/21 10:47:50;;;;;;;;;;;22.70;72.50;;;;;;5048132;28;1894;-70
2023/08/21 10:50:16;;;;;;;;;;;22.70;72.60;;;;;;5043700;28;871;-70
2023/08/21 10:52:42;;;;;;;;;;;22.70;72.60;;;;;;5052701;28;941;-70
2023/08/21 10:55:11;;;;;;;;;;;22.60;72.60;;;;;;5052557;28;1260;-70
2023/08/21 10:57:37;;;;;;;;;;;22.70;72.80;;;;;;5039641;28;1302;-70
2023/08/21 11:00:09;;;;;;;;;;;22.70;72.90;;;;;;5047959;28;851;-70
2023/08/21 11:02:35;;;;;;;;;;;22.70;72.90;;;;;;5052277;28;898;-70
2023/08/21 11:05:00;;;;;;;;;;;22.60;72.70;;;;;;5052031;28;1057;-70
2023/08/21 11:07:26;;;;;;;;;;;22.70;72.90;;;;;;5051924;28;1964;-71
2023/08/21 11:09:52;;;;;;;;;;;22.70;73.10;;;;;;5051444;28;1250;-69
2023/08/21 11:12:18;;;;;;;;;;;22.70;73.20;;;;;;5052195;28;867;-69
2023/08/21 11:14:43;;;;;;;;;;;22.70;73.20;;;;;;5052471;28;853;-70
2023/08/21 11:17:09;;;;;;;;;;;22.70;73.40;;;;;;5047067;28;979;-70
2023/08/21 11:19:35;;;;;;;;;;;22.60;73.30;;;;;;5044902;28;1416;-70
2023/08/21 11:22:03;;;;;;;;;;;22.60;73.40;;;;;;5051635;28;1236;-70
2023/08/21 11:24:29;;;;;;;;;;;22.70;73.50;;;;;;5052347;28;1320;-70
2023/08/21 11:26:55;;;;;;;;;;;22.60;73.40;;;;;;5051891;28;1968;-70
2023/08/21 11:29:20;;;;;;;;;;;22.60;73.50;;;;;;5051698;28;1309;-69
2023/08/21 11:31:47;;;;;;;;;;;22.60;73.50;;;;;;5052118;28;867;-70
2023/08/21 11:34:18;;;;;;;;;;;22.70;73.60;;;;;;5046052;28;908;-70
2023/08/21 11:36:43;;;;;;;;;;;22.60;73.60;;;;;;5067464;28;1266;-71
2023/08/21 11:39:08;;;;;;;;;;;22.60;73.60;;;;;;5046834;28;1361;-69
2023/08/21 11:41:52;;;;;;;;;;;22.60;73.60;;;;;;5050696;28;801;-69
2023/08/21 11:44:17;;;;;;;;;;;22.60;73.60;;;;;;5046156;28;1101;-70
2023/08/21 11:46:43;;;;;;;;;;;22.60;73.70;;;;;;5052071;28;1918;-69
2023/08/21 11:49:08;;;;;;;;;;;22.60;73.70;;;;;;5045619;28;1347;-69
2023/08/21 11:51:39;;;;;;;;;;;22.60;73.70;;;;;;5051783;28;1018;-70
2023/08/21 11:54:05;;;;;;;;;;;22.60;73.70;;;;;;5046478;28;1262;-69
2023/08/21 11:56:31;;;;;;;;;;;22.60;73.70;;;;;;5049157;28;875;-69
2023/08/21 11:58:58;;;;;;;;;;;22.60;73.70;;;;;;5041297;28;1367;-70
2023/08/21 12:01:24;;;;;;;;;;;22.60;73.70;;;;;;5051123;28;882;-69
2023/08/21 12:03:54;;;;;;;;;;;22.60;73.80;;;;;;5040566;28;1226;-70
2023/08/21 12:06:19;;;;;;;;;;;22.60;73.80;;;;;;5051263;28;859;-70
2023/08/21 12:08:45;;;;;;;;;;;22.60;73.80;;;;;;5050247;28;1910;-70
2023/08/21 12:11:11;;;;;;;;;;;22.60;73.80;;;;;;5051314;28;911;-70
2023/08/21 12:13:36;;;;;;;;;;;22.60;73.80;;;;;;5050846;28;1389;-70
2023/08/21 12:16:02;;;;;;;;;;;22.60;73.80;;;;;;5044444;28;820;-70
2023/08/21 12:18:28;;;;;;;;;;;22.60;73.80;;;;;;5050888;28;1370;-70
2023/08/21 12:20:53;;;;;;;;;;;22.60;73.80;;;;;;5052457;28;957;-70
2023/08/21 12:23:19;;;;;;;;;;;22.60;73.90;;;;;;5051790;28;821;-70
2023/08/21 12:25:44;;;;;;;;;;;22.60;73.80;;;;;;5051320;28;804;-70
2023/08/21 12:28:10;;;;;;;;;;;22.60;73.90;;;;;;5051342;28;1914;-69
2023/08/21 12:30:36;;;;;;;;;;;22.60;73.90;;;;;;5051265;28;884;-69
2023/08/21 12:33:01;;;;;;;;;;;22.60;73.90;;;;;;5051331;28;792;-69
2023/08/21 12:35:27;;;;;;;;;;;22.60;73.90;;;;;;5051114;28;942;-69
2023/08/21 12:37:56;;;;;;;;;;;22.60;73.90;;;;;;5050370;28;1344;-69
2023/08/21 12:40:21;;;;;;;;;;;22.60;73.90;;;;;;5050352;28;1282;-69
2023/08/21 12:42:47;;;;;;;;;;;22.60;73.90;;;;;;5050728;28;1357;-69
2023/08/21 12:45:13;;;;;;;;;;;22.60;74.00;;;;;;5047197;28;1557;-69
2023/08/21 12:47:38;;;;;;;;;;;22.60;74.00;;;;;;5045404;28;1894;-69
2023/08/21 12:50:04;;;;;;;;;;;22.60;73.90;;;;;;5049779;28;1331;-69
2023/08/21 12:52:29;;;;;;;;;;;22.70;74.10;;;;;;5050225;28;1398;-70
2023/08/21 12:54:55;;;;;;;;;;;22.70;74.00;;;;;;5050960;28;1504;-70
2023/08/21 12:57:21;;;;;;;;;;;22.70;74.10;;;;;;5044773;28;801;-70
2023/08/21 12:59:47;;;;;;;;;;;22.60;74.00;;;;;;5049957;28;1383;-70
2023/08/21 13:02:12;;;;;;;;;;;22.60;74.00;;;;;;5049467;28;908;-71
2023/08/21 13:04:38;;;;;;;;;;;22.60;74.00;;;;;;5042893;28;1273;-70
2023/08/21 13:07:03;;;;;;;;;;;22.60;74.10;;;;;;5050833;28;1910;-70
2023/08/21 13:09:28;;;;;;;;;;;22.70;74.10;;;;;;5048737;28;1193;-70
2023/08/21 13:11:54;;;;;;;;;;;22.60;74.00;;;;;;5050242;28;805;-70
2023/08/21 13:14:19;;;;;;;;;;;22.60;74.00;;;;;;5050019;28;1014;-70
2023/08/21 13:16:45;;;;;;;;;;;22.60;74.00;;;;;;5050437;28;808;-70
2023/08/21 13:19:10;;;;;;;;;;;22.60;74.00;;;;;;5049785;28;1391;-69
2023/08/21 13:21:36;;;;;;;;;;;22.60;74.10;;;;;;5050189;28;879;-69
2023/08/21 13:24:02;;;;;;;;;;;22.60;74.10;;;;;;5049866;28;817;-69
2023/08/21 13:26:29;;;;;;;;;;;22.60;74.10;;;;;;5040855;28;927;-68
2023/08/21 13:28:55;;;;;;;;;;;22.60;74.10;;;;;;5049554;28;1914;-68
2023/08/21 13:31:20;;;;;;;;;;;22.70;74.10;;;;;;5049472;28;926;-68
2023/08/21 13:33:49;;;;;;;;;;;22.60;74.10;;;;;;5050269;28;763;-68
2023/08/21 13:36:15;;;;;;;;;;;22.70;74.20;;;;;;5049731;28;831;-69
2023/08/21 13:38:40;;;;;;;;;;;22.60;74.10;;;;;;5049292;28;1205;-69
2023/08/21 13:41:06;;;;;;;;;;;22.60;74.10;;;;;;5049397;28;853;-69
2023/08/21 13:43:32;;;;;;;;;;;22.70;74.20;;;;;;5044112;28;1094;-69
2023/08/21 13:45:57;;;;;;;;;;;22.60;74.10;;;;;;5049978;28;893;-69
2023/08/21 13:48:23;;;;;;;;;;;22.70;74.20;;;;;;5049093;28;1899;-70
2023/08/21 13:50:49;;;;;;;;;;;22.70;74.20;;;;;;5049857;28;975;-70
2023/08/21 13:53:14;;;;;;;;;;;22.70;74.20;;;;;;5049795;28;891;-70
2023/08/21 13:55:40;;;;;;;;;;;22.70;74.20;;;;;;5049741;28;1263;-70
2023/08/21 13:58:05;;;;;;;;;;;22.60;74.10;;;;;;5049060;28;1284;-70
2023/08/21 14:00:31;;;;;;;;;;;22.60;74.20;;;;;;5048211;28;1299;-70
2023/08/21 14:02:56;;;;;;;;;;;22.60;74.10;;;;;;5049986;28;838;-71
2023/08/21 14:05:22;;;;;;;;;;;22.70;74.20;;;;;;5049576;28;935;-71
2023/08/21 14:07:47;;;;;;;;;;;22.70;74.20;;;;;;5049699;28;1950;-71
2023/08/21 14:10:14;;;;;;;;;;;22.70;74.20;;;;;;5050056;28;867;-71
2023/08/21 14:12:39;;;;;;;;;;;22.70;74.20;;;;;;5050746;28;871;-69
2023/08/21 14:15:05;;;;;;;;;;;22.60;74.10;;;;;;5042733;28;892;-70
2023/08/21 14:17:30;;;;;;;;;;;22.60;74.20;;;;;;5049525;28;1599;-69
2023/08/21 14:19:56;;;;;;;;;;;22.70;74.20;;;;;;5049783;28;1381;-69
2023/08/21 14:22:22;;;;;;;;;;;22.70;74.20;;;;;;5050186;28;785;-69
2023/08/21 14:24:47;;;;;;;;;;;22.60;74.10;;;;;;5043296;28;887;-70
2023/08/21 14:27:13;;;;;;;;;;;22.70;74.20;;;;;;5054347;28;1961;-70